Flight Track Log - Related Links

Times and Time Zones

All times are in EDT time to prevent confusion due to time zone crossing. See the UAL776 flight status page for this flight to view local times or setup timezone preferences in your user account.

Time Position Orientation Groundspeed Altitude Reporting Facility
EDT Latitude Longitude Course Direction KTS MPH feet Rate Location/Type
Fri 11:23:22 AM 37.6333 -122.3667 136° Southeast 169 194 900  Level Northern Cal TRACON
Fri 11:24:22 AM 37.6833 -122.3667 360° North 203 234 4,000 3,075 Climbing Northern Cal TRACON
Fri 11:24:42 AM 37.6958 -122.3678 356° North 198 228 5,000 3,000 Climbing Oakland Center
Fri 11:25:22 AM 37.7167 -122.4167 298° West 253 291 7,000 3,300 Climbing Northern Cal TRACON
Fri 11:26:00 AM 37.4771 -122.4572 130° Southeast  Level FlightAware Approximate
Fri 11:26:22 AM 37.6500 -122.4833 218° Southwest 300 345 10,500  Level Northern Cal TRACON
Fri 11:27:00 AM 37.4276 -122.3495 113° Southeast  Level FlightAware Approximate
Fri 11:27:46 AM 37.5381 -122.5064 189° South 353 406 13,800  Level Oakland Center
Fri 11:28:00 AM 37.3690 -122.2495 136° Southeast  Level FlightAware Approximate
Fri 11:28:47 AM 37.4586 -122.4239 140° Southeast 387 445 17,100  Level Oakland Center
Fri 11:29:49 AM 37.3883 -122.3175 130° Southeast 397 457 19,700 2,878 Climbing Oakland Center
Fri 11:30:50 AM 37.2942 -122.1886 133° Southeast 418 481 23,000 2,754 Climbing Oakland Center
Fri 11:31:51 AM 37.2131 -122.0769 132° Southeast 433 498 25,300 2,195 Climbing Oakland Center
Fri 11:32:53 AM 37.1292 -121.9586 132° Southeast 451 519 27,500 2,000 Climbing Oakland Center
Fri 11:33:54 AM 37.0417 -121.8389 132° Southeast 465 535 29,400 2,098 Climbing Oakland Center
Fri 11:34:56 AM 36.9497 -121.7211 134° Southeast 470 541 31,800 2,293 Climbing Oakland Center
Fri 11:35:57 AM 36.8636 -121.6003 132° Southeast 466 536 34,100 2,066 Climbing Oakland Center
Fri 11:36:58 AM 36.7806 -121.4894 133° Southeast 456 525 36,000 1,415 Climbing Oakland Center
Fri 11:38:00 AM 36.6769 -121.3458 132° Southeast 462 532 37,000 488 Climbing Oakland Center
Fri 11:39:01 AM 36.5914 -121.2311 133° Southeast 454 522 37,000 -49 Level Oakland Center
Fri 11:40:03 AM 36.5217 -121.1028 124° Southeast 442 509 36,900  Descending Oakland Center
Fri 11:41:04 AM 36.4908 -120.9481 104° East 454 522 37,000 49 Climbing Oakland Center
Fri 11:42:06 AM 36.4597 -120.7944 104° East 455 524 37,000 -33 Level Oakland Center
Fri 11:44:08 AM 36.3914 -120.4886 105° East 463 533 36,900  Descending Oakland Center
Fri 11:45:10 AM 36.2925 -120.3850 140° Southeast 461 531 37,000 49 Climbing Oakland Center
Fri 11:46:11 AM 36.1828 -120.3056 150° Southeast 447 514 37,000  Level Oakland Center
Fri 11:47:13 AM 36.0708 -120.2239 149° Southeast 459 528 37,000  Level Oakland Center
Fri 11:48:14 AM 35.9400 -120.1369 152° Southeast 438 504 37,000 -49 Level Oakland Center
Fri 11:49:16 AM 35.8306 -120.0561 149° Southeast 450 518 36,900 -49 Descending Oakland Center
Fri 11:50:17 AM 35.7217 -119.9778 150° Southeast 452 520 36,900  Level Oakland Center
Fri 11:51:19 AM 35.6114 -119.8983 150° Southeast 453 521 36,900 -293 Level Oakland Center
Fri 11:52:20 AM 35.5028 -119.8186 149° Southeast 452 520 36,300 -787 Descending Oakland Center
Fri 11:53:21 AM 35.3933 -119.7400 150° Southeast 453 521 35,300 -911 Descending Oakland Center
Fri 11:53:39 AM 35.3714 -119.7244 150° Southeast 457 526 35,100 -848 Descending Los Angeles Center
Fri 11:54:53 AM 35.2408 -119.6286 149° Southeast 454 522 34,000 -1,007 Descending Los Angeles Center
Fri 11:55:56 AM 35.1161 -119.5217 145° Southeast 456 525 32,800 -1,056 Descending Los Angeles Center
Fri 11:56:58 AM 35.0114 -119.4311 145° Southeast 459 528 31,800 -1,113 Descending Los Angeles Center
Fri 11:58:00 AM 34.9061 -119.3422 145° Southeast 460 529 30,500 -1,258 Descending Los Angeles Center
Fri 11:59:02 AM 34.7975 -119.2511 145° Southeast 468 539 29,200 -1,597 Descending Los Angeles Center
Fri 12:00:04 PM 34.6900 -119.1614 146° Southeast 469 540 27,200 -2,613 Descending Los Angeles Center
Fri 12:01:06 PM 34.5700 -119.0614 146° Southeast 467 537 23,800 -2,903 Descending Los Angeles Center
Fri 12:02:08 PM 34.4669 -118.9739 145° Southeast 451 519 21,200 -2,661 Descending Los Angeles Center
Fri 12:03:10 PM 34.3694 -118.8950 146° Southeast 417 480 18,300 -2,976 Descending Los Angeles Center
Fri 12:04:13 PM 34.2664 -118.8483 159° South 395 455 15,000 -3,109 Descending Los Angeles Center
Fri 12:05:27 PM 34.1458 -118.8044 163° South 378 435 11,200 -2,206 Descending Los Angeles Center
Fri 12:06:29 PM 34.0647 -118.7114 136° Southeast 334 384 10,000 -581 Descending Los Angeles Center
Fri 12:07:31 PM 34.0428 -118.6083 104° East 316 364 10,000 -677 Level Los Angeles Center
Fri 12:08:33 PM 34.0225 -118.5108 104° East 279 321 8,600 -1,536 Descending Los Angeles Center
Fri 12:09:36 PM 34.0153 -118.4328 96° East 276 318 6,800 -1,680 Descending Los Angeles Center
Fri 12:10:38 PM 34.0236 -118.3428 84° East 273 314 5,100 -1,597 Descending Los Angeles Center
Fri 12:11:40 PM 34.0164 -118.2514 95° East 248 285 3,500 -1,258 Descending Los Angeles Center
Fri 12:12:42 PM 33.9653 -118.2664 194° South 212 244 2,500 -968 Descending Los Angeles Center

Login

Don't have an account? Register now (free) for customized features, flight alerts, and more!